Time;durP1;ratioP1;P1;durP2;ratioP2;P2;SDS_P1;SDS_P2;PMS_P1;PMS_P2;Temp;Humidity;BMP_temperature;BMP_pressure;BME280_temperature;BME280_humidity;BME280_pressure;Samples;Min_cycle;Max_cycle;Signal;HPM_P1;HPM_P2
2022/05/06 00:01:32;;;;;;;54.72;24.38;;;;;;;10.00;94.28;102371.94;5010842;28;20487;-92
2022/05/06 00:03:57;;;;;;;49.50;24.23;;;;;;;9.97;94.27;102376.91;5011189;28;20033;-91
2022/05/06 00:06:22;;;;;;;57.75;25.17;;;;;;;9.95;95.46;102374.44;5011288;28;20022;-91
2022/05/06 00:08:48;;;;;;;51.80;24.00;;;;;;;9.91;95.24;102383.09;5017150;28;20068;-90
2022/05/06 00:11:14;;;;;;;51.27;24.53;;;;;;;9.82;94.47;102367.31;5012073;28;20033;-91
2022/05/06 00:13:39;;;;;;;49.47;23.65;;;;;;;9.80;95.37;102380.09;5017805;28;20030;-91
2022/05/06 00:16:05;;;;;;;49.13;24.73;;;;;;;9.76;94.88;102376.19;5015330;28;20030;-91
2022/05/06 00:18:34;;;;;;;51.17;23.87;;;;;;;9.73;94.39;102370.47;5012052;28;20488;-91
2022/05/06 00:21:00;;;;;;;53.35;24.63;;;;;;;9.69;94.98;102375.41;5009490;28;20034;-91
2022/05/06 00:23:25;;;;;;;54.13;25.17;;;;;;;9.67;95.62;102377.50;5010400;28;20032;-91
2022/05/06 00:25:50;;;;;;;48.40;25.40;;;;;;;9.56;96.50;102381.66;5011057;28;20411;-91
2022/05/06 00:28:16;;;;;;;54.13;26.15;;;;;;;9.61;96.91;102386.38;5012363;28;20141;-91
2022/05/06 00:30:42;;;;;;;52.93;25.40;;;;;;;9.57;96.91;102382.47;5010494;28;20382;-91
2022/05/06 00:33:09;;;;;;;52.95;25.17;;;;;;;9.55;96.51;102382.69;5011663;28;20037;-91
2022/05/06 00:35:37;;;;;;;52.40;24.02;;;;;;;9.51;96.16;102386.81;5010523;28;20033;-91
2022/05/06 00:38:03;;;;;;;50.15;24.42;;;;;;;9.47;95.90;102390.94;5011845;28;20489;-89
2022/05/06 00:40:29;;;;;;;58.05;26.80;;;;;;;9.41;97.45;102392.63;5014623;28;20030;-89
2022/05/06 00:42:56;;;;;;;55.77;25.53;;;;;;;9.40;97.08;102391.78;5017933;28;20037;-90
2022/05/06 00:45:21;;;;;;;51.35;24.83;;;;;;;9.34;97.66;102381.94;5017294;28;20022;-89
2022/05/06 00:47:46;;;;;;;48.67;25.10;;;;;;;9.30;97.08;102379.91;5016852;28;20523;-90
2022/05/06 00:50:12;;;;;;;56.22;25.17;;;;;;;9.26;97.27;102376.00;5014406;28;20034;-89
2022/05/06 00:52:37;;;;;;;51.80;24.97;;;;;;;9.26;98.08;102384.03;5013865;28;20038;-90
2022/05/06 00:55:04;;;;;;;56.43;25.87;;;;;;;9.20;97.62;102381.16;5010634;28;20509;-89
2022/05/06 00:57:30;;;;;;;59.00;27.60;;;;;;;9.18;98.32;102377.06;5012145;28;20512;-90
2022/05/06 01:02:39;;;;;;;48.97;24.75;;;;;;;9.12;97.55;102384.06;5001227;28;20065;-89
2022/05/06 01:05:05;;;;;;;57.83;26.57;;;;;;;9.09;97.99;102381.81;5007316;28;20026;-89
2022/05/06 01:07:30;;;;;;;54.23;25.67;;;;;;;9.05;97.93;102376.03;5007048;28;20036;-89
2022/05/06 01:09:56;;;;;;;57.13;25.17;;;;;;;9.03;97.62;102378.13;5011629;28;20625;-88
2022/05/06 01:12:21;;;;;;;56.97;27.80;;;;;;;9.01;98.71;102376.69;5009072;28;20477;-89
2022/05/06 01:14:46;;;;;;;59.17;27.40;;;;;;;8.96;99.05;102374.63;5011827;28;20023;-89
2022/05/06 01:17:13;;;;;;;58.88;26.65;;;;;;;8.92;99.38;102381.41;5011108;28;20029;-89
2022/05/06 01:19:39;;;;;;;55.93;26.23;;;;;;;8.90;98.64;102391.50;5009597;28;20025;-89
2022/05/06 01:22:05;;;;;;;51.63;24.80;;;;;;;8.85;97.92;102383.31;5004948;28;20423;-90
2022/05/06 01:24:31;;;;;;;56.17;25.08;;;;;;;8.82;98.10;102383.72;5007924;28;20029;-89
2022/05/06 01:27:06;;;;;;;56.63;26.00;;;;;;;8.80;99.11;102386.56;5010770;28;20029;-90
2022/05/06 01:29:32;;;;;;;55.70;25.40;;;;;;;8.72;98.83;102382.25;5009354;28;20093;-90
2022/05/06 01:31:58;;;;;;;58.78;26.38;;;;;;;8.72;98.97;102384.13;5007931;28;20180;-90
2022/05/06 01:34:27;;;;;;;57.37;25.40;;;;;;;8.70;99.16;102394.19;5013332;28;20033;-89
2022/05/06 01:36:55;;;;;;;55.03;25.20;;;;;;;8.68;99.36;102391.72;5010277;28;20293;-89
2022/05/06 01:39:23;;;;;;;57.40;26.17;;;;;;;8.59;99.46;102382.28;5009494;28;20037;-90
2022/05/06 01:41:52;;;;;;;51.35;24.10;;;;;;;8.61;99.12;102389.06;5003337;28;20083;-90
2022/05/06 01:44:20;;;;;;;56.50;26.20;;;;;;;8.58;99.07;102394.00;5009262;28;20037;-90
2022/05/06 01:46:46;;;;;;;58.00;25.77;;;;;;;8.52;99.34;102394.81;5010471;28;20459;-90
2022/05/06 01:49:14;;;;;;;54.90;25.47;;;;;;;8.50;99.97;102387.00;5010471;28;20133;-89
2022/05/06 01:51:40;;;;;;;56.63;25.80;;;;;;;8.51;100.00;102390.50;5009119;28;20641;-90
2022/05/06 01:54:07;;;;;;;55.55;26.52;;;;;;;8.47;100.00;102382.03;5008694;28;20037;-88
2022/05/06 01:56:32;;;;;;;56.15;25.77;;;;;;;8.51;100.00;102387.81;5011322;28;20025;-89
2022/05/06 01:58:58;;;;;;;55.03;25.33;;;;;;;8.57;100.00;102389.69;5009740;28;20552;-89
2022/05/06 02:01:23;;;;;;;60.73;27.37;;;;;;;8.58;100.00;102385.97;5007689;28;20034;-88
2022/05/06 02:06:32;;;;;;;62.23;27.13;;;;;;;8.67;100.00;102397.28;5010638;28;20041;-89
2022/05/06 02:09:08;;;;;;;61.45;26.58;;;;;;;8.73;100.00;102396.47;5010178;28;20432;-91
2022/05/06 02:11:33;;;;;;;64.15;27.27;;;;;;;8.72;100.00;102384.13;5008514;28;20065;-89
2022/05/06 02:13:59;;;;;;;63.43;26.23;;;;;;;8.84;100.00;102392.34;5009184;28;20501;-89
2022/05/06 02:16:24;;;;;;;64.23;27.30;;;;;;;8.95;100.00;102394.38;5008634;28;20029;-88
2022/05/06 02:18:49;;;;;;;75.20;26.70;;;;;;;8.99;100.00;102389.44;5001198;28;20053;-88
2022/05/06 02:21:14;;;;;;;71.73;27.57;;;;;;;9.06;100.00;102380.34;5012225;28;20054;-89
2022/05/06 02:23:40;;;;;;;67.93;26.00;;;;;;;9.11;100.00;102387.78;5016137;28;20033;-90
2022/05/06 02:26:05;;;;;;;175.23;27.83;;;;;;;9.02;100.00;102391.69;5014567;28;20025;-89
2022/05/06 02:28:30;;;;;;;68.53;26.87;;;;;;;9.01;100.00;102382.03;5012772;28;20101;-89
2022/05/06 02:33:39;;;;;;;69.45;25.33;;;;;;;9.03;100.00;102382.63;5013299;28;20161;-90
2022/05/06 02:36:05;;;;;;;82.10;24.47;;;;;;;9.11;100.00;102393.13;5012038;28;20025;-89
2022/05/06 02:38:31;;;;;;;132.38;25.63;;;;;;;9.07;100.00;102397.25;5012249;28;20022;-89
2022/05/06 02:40:56;;;;;;;192.10;25.67;;;;;;;8.93;100.00;102397.28;5011794;28;20559;-89
2022/05/06 02:43:22;;;;;;;139.67;26.97;;;;;;;8.93;100.00;102397.28;5013477;28;20034;-88
2022/05/06 02:45:47;;;;;;;99.05;27.23;;;;;;;8.99;100.00;102394.78;5012483;28;20503;-89
2022/05/06 02:48:12;;;;;;;75.60;26.67;;;;;;;9.04;100.00;102398.47;5011138;28;20022;-89
2022/05/06 02:50:38;;;;;;;109.83;27.00;;;;;;;9.00;100.00;102393.75;5012054;28;20029;-89
2022/05/06 02:53:04;;;;;;;81.20;25.73;;;;;;;9.05;100.00;102401.97;5011806;28;20041;-88
2022/05/06 02:55:39;;;;;;;79.50;26.88;;;;;;;9.03;100.00;102406.69;5011996;28;20103;-89
2022/05/06 02:58:05;;;;;;;69.83;24.67;;;;;;;9.00;100.00;102401.75;5012817;28;20030;-88
2022/05/06 03:00:30;;;;;;;111.63;25.13;;;;;;;8.91;100.00;102404.69;5011948;28;20391;-89
2022/05/06 03:02:56;;;;;;;72.30;25.38;;;;;;;9.00;100.00;102393.75;5012414;28;20533;-89
2022/05/06 03:05:25;;;;;;;181.05;23.20;;;;;;;9.04;100.00;102398.47;5011737;28;20061;-89
2022/05/06 03:07:51;;;;;;;88.18;25.50;;;;;;;9.05;100.00;102392.09;5011871;28;20025;-89
2022/05/06 03:10:17;;;;;;;105.33;24.43;;;;;;;9.11;100.00;102397.63;5011896;28;20044;-89
2022/05/06 03:12:43;;;;;;;117.20;23.90;;;;;;;9.12;100.00;102400.13;5012014;28;20058;-89
2022/05/06 03:15:09;;;;;;;103.68;24.25;;;;;;;9.11;100.00;102397.63;5011504;28;20064;-89
2022/05/06 03:17:35;;;;;;;162.45;24.75;;;;;;;9.05;100.00;102397.44;5012079;28;20041;-90
2022/05/06 03:20:01;;;;;;;91.83;24.27;;;;;;;9.03;100.00;102396.84;5012517;28;20030;-88
2022/05/06 03:22:28;;;;;;;63.85;25.70;;;;;;;9.08;100.00;102398.88;5011342;28;20497;-90
2022/05/06 03:24:53;;;;;;;81.25;23.80;;;;;;;9.07;100.00;102397.25;5011005;28;20037;-89
2022/05/06 03:30:04;;;;;;;233.30;24.90;;;;;;;8.99;100.00;102384.91;5012672;28;20141;-89
2022/05/06 03:32:35;;;;;;;82.03;23.35;;;;;;;8.97;100.00;102397.66;5011274;28;20026;-88
2022/05/06 03:35:01;;;;;;;104.53;22.88;;;;;;;8.88;100.00;102391.72;5012262;28;20094;-89
2022/05/06 03:37:27;;;;;;;178.13;22.87;;;;;;;8.83;100.00;102390.69;5010807;28;20036;-87
2022/05/06 03:39:52;;;;;;;100.05;22.08;;;;;;;8.87;100.00;102394.59;5011363;28;20208;-87
2022/05/06 03:42:17;;;;;;;69.33;22.83;;;;;;;8.88;100.00;102397.06;5011434;28;20036;-89
2022/05/06 03:44:43;;;;;;;108.23;21.90;;;;;;;8.83;100.00;102396.84;5010102;28;20092;-88
2022/05/06 03:47:08;;;;;;;157.00;21.97;;;;;;;8.88;100.00;102404.25;5009574;28;20041;-89
2022/05/06 03:49:33;;;;;;;196.33;23.10;;;;;;;8.85;100.00;102405.50;5011023;28;20728;-88
2022/05/06 03:51:59;;;;;;;144.20;21.98;;;;;;;8.89;100.00;102408.56;5010182;28;20056;-90
2022/05/06 03:54:26;;;;;;;72.97;21.67;;;;;;;8.88;100.00;102397.06;5010956;28;20034;-86
2022/05/06 03:56:51;;;;;;;69.82;21.45;;;;;;;8.93;100.00;102396.44;5010388;28;20018;-86
2022/05/06 03:59:16;;;;;;;62.90;20.50;;;;;;;9.02;100.00;102394.34;5014604;28;20025;-89
2022/05/06 04:01:41;;;;;;;75.57;20.60;;;;;;;9.05;100.00;102399.31;5013376;28;20042;-87
2022/05/06 04:04:07;;;;;;;85.80;20.58;;;;;;;9.02;100.00;102410.41;5013614;28;20060;-86
2022/05/06 04:06:33;;;;;;;70.00;20.50;;;;;;;8.97;100.00;102405.69;5012785;28;20022;-87
2022/05/06 04:08:59;;;;;;;104.22;20.45;;;;;;;8.94;100.00;102406.94;5013773;28;20097;-87
2022/05/06 04:11:24;;;;;;;146.77;20.97;;;;;;;8.91;100.00;102398.50;5011054;28;20156;-88
2022/05/06 04:13:51;;;;;;;89.40;20.50;;;;;;;8.89;100.00;102406.72;5010879;28;20021;-88
2022/05/06 04:16:16;;;;;;;77.15;20.60;;;;;;;8.94;100.00;102403.44;5010336;28;20036;-85
2022/05/06 04:18:41;;;;;;;51.27;20.60;;;;;;;8.98;100.00;102406.50;5010521;28;20101;-86
2022/05/06 04:23:50;;;;;;;144.80;19.03;;;;;;;8.98;100.00;102411.84;5011020;28;20056;-88
2022/05/06 04:26:16;;;;;;;103.53;19.77;;;;;;;9.00;100.00;102421.31;5010415;28;20795;-87
2022/05/06 04:28:43;;;;;;;125.20;19.08;;;;;;;9.00;100.00;102412.47;5011247;28;20036;-89
2022/05/06 04:31:09;;;;;;;90.80;19.80;;;;;;;9.09;100.00;102421.91;5008677;28;20589;-88
2022/05/06 04:33:37;;;;;;;90.97;19.87;;;;;;;9.12;100.00;102426.03;5011242;28;20315;-90
2022/05/06 04:36:04;;;;;;;104.00;19.45;;;;;;;9.15;100.00;102428.28;5010959;28;20033;-90
2022/05/06 04:38:30;;;;;;;116.38;18.40;;;;;;;9.17;100.00;102432.38;5021431;28;20022;-90
2022/05/06 04:41:01;;;;;;;270.80;19.67;;;;;;;9.08;100.00;102433.66;5003927;28;20022;-89
2022/05/06 04:43:26;;;;;;;250.23;20.13;;;;;;;9.01;100.00;102422.97;5014415;28;20108;-88
2022/05/06 04:45:52;;;;;;;80.27;18.47;;;;;;;9.08;100.00;102428.31;5009280;28;20395;-88
2022/05/06 04:48:19;;;;;;;84.13;18.95;;;;;;;9.11;100.00;102425.22;5011106;28;20503;-89
2022/05/06 04:50:46;;;;;;;72.35;17.48;;;;;;;9.16;100.00;102422.72;5009203;28;20513;-89
2022/05/06 04:53:12;;;;;;;119.07;19.20;;;;;;;9.17;100.00;102426.22;5010915;28;20026;-88
2022/05/06 04:55:40;;;;;;;81.78;18.27;;;;;;;9.26;100.00;102437.53;5009583;28;20559;-88
2022/05/06 04:58:06;;;;;;;71.73;17.77;;;;;;;9.31;100.00;102432.38;5014474;28;20391;-95
2022/05/06 05:00:33;;;;;;;40.40;17.40;;;;;;;9.45;100.00;102435.81;5012767;28;20300;-92
2022/05/06 05:02:59;;;;;;;49.88;17.45;;;;;;;9.52;100.00;102441.97;5012960;28;20030;-94
2022/05/06 05:05:24;;;;;;;43.35;16.85;;;;;;;9.63;100.00;102443.19;5013133;28;20036;-95
2022/05/06 05:07:53;;;;;;;35.27;16.27;;;;;;;9.74;100.00;102460.44;5012678;28;20026;-91
2022/05/06 05:10:18;;;;;;;35.53;16.30;;;;;;;9.75;99.66;102446.81;5010696;28;20092;-92
2022/05/06 05:12:44;;;;;;;79.20;15.23;;;;;;;9.71;100.00;102445.59;5013062;28;20037;-92
2022/05/06 05:15:10;;;;;;;71.67;15.47;;;;;;;9.73;99.38;102448.88;5019022;28;20032;-93
2022/05/06 05:17:35;;;;;;;100.35;15.07;;;;;;;9.73;99.37;102459.59;5019040;28;20018;-92
2022/05/06 05:20:01;;;;;;;43.17;14.67;;;;;;;9.72;98.93;102465.19;5027253;22;20415;-91
2022/05/06 05:22:26;;;;;;;132.60;14.05;;;;;;;9.65;98.79;102460.66;5017556;28;20065;-93
2022/05/06 05:24:52;;;;;;;36.47;13.37;;;;;;;9.67;99.15;102455.13;5011430;28;20109;-90
2022/05/06 05:27:17;;;;;;;26.10;12.37;;;;;;;9.79;98.23;102465.97;5014836;28;20122;-92
2022/05/06 05:29:43;;;;;;;22.23;13.03;;;;;;;9.83;98.60;102461.81;5011521;28;20044;-91
2022/05/06 05:32:09;;;;;;;68.68;14.68;;;;;;;9.81;98.18;102459.38;5007474;28;20485;-92
2022/05/06 05:34:36;;;;;;;34.22;12.90;;;;;;;9.84;98.50;102468.81;5011408;28;20022;-92
2022/05/06 05:37:01;;;;;;;40.33;13.87;;;;;;;9.84;98.30;102464.31;5009712;28;20763;-91
2022/05/06 05:39:27;;;;;;;53.23;13.57;;;;;;;9.85;97.98;102475.81;5008797;28;20346;-92
2022/05/06 05:41:52;;;;;;;58.30;13.50;;;;;;;9.82;98.10;102463.69;5010676;28;20046;-93
2022/05/06 05:49:46;;;;;;;22.07;12.53;;;;;;;10.34;95.46;102464.66;5006690;28;21455;-93
2022/05/06 05:52:11;;;;;;;31.15;12.52;;;;;;;10.39;95.31;102467.53;5010488;28;20022;-94
2022/05/06 05:54:38;;;;;;;38.43;12.90;;;;;;;10.41;95.76;102476.19;5013271;28;20025;-92
2022/05/06 05:57:04;;;;;;;84.53;12.60;;;;;;;10.27;94.55;102464.69;5014972;28;20366;-93
2022/05/06 05:59:29;;;;;;;30.08;11.98;;;;;;;10.40;95.44;102466.50;5015931;28;20444;-94
2022/05/06 06:01:55;;;;;;;74.23;13.47;;;;;;;10.40;94.98;102467.34;4999319;28;20030;-92
2022/05/06 06:04:20;;;;;;;26.67;12.20;;;;;;;10.48;94.71;102465.41;5003070;28;20479;-92
2022/05/06 06:06:46;;;;;;;29.73;12.57;;;;;;;10.49;95.01;102459.84;5013391;28;20062;-91
2022/05/06 06:09:11;;;;;;;60.50;13.27;;;;;;;10.57;94.58;102475.66;5014885;28;20084;-90
2022/05/06 06:11:36;;;;;;;49.77;12.67;;;;;;;10.62;93.75;102468.84;5016898;28;20097;-91
2022/05/06 06:14:05;;;;;;;28.17;12.73;;;;;;;10.69;93.59;102481.16;5019587;28;20405;-90
2022/05/06 06:16:30;;;;;;;77.00;12.98;;;;;;;10.76;93.93;102473.03;5017250;28;20725;-91
2022/05/06 06:18:58;;;;;;;40.50;12.90;;;;;;;10.84;93.23;102466.59;5015217;28;20044;-91
2022/05/06 06:21:25;;;;;;;21.30;12.20;;;;;;;10.96;93.05;102461.34;5014765;28;20364;-90
2022/05/06 06:23:53;;;;;;;24.75;13.27;;;;;;;11.20;92.55;102465.03;5011873;28;20044;-86
2022/05/06 06:26:20;;;;;;;31.38;12.63;;;;;;;11.28;91.67;102470.13;5027463;28;20022;-87
2022/05/06 06:28:46;;;;;;;43.38;12.88;;;;;;;11.23;90.24;102461.91;5025691;28;20075;-88
2022/05/06 06:31:12;;;;;;;43.80;14.23;;;;;;;11.25;90.46;102465.19;5143022;22;20476;-88
2022/05/06 06:33:40;;;;;;;27.30;13.60;;;;;;;11.31;90.63;102464.31;5044078;28;20409;-90
2022/05/06 06:36:09;;;;;;;33.65;13.38;;;;;;;11.49;90.69;102474.22;5032437;28;20484;-88
2022/05/06 06:38:37;;;;;;;24.83;12.63;;;;;;;11.63;88.29;102482.09;5028611;28;20477;-85
2022/05/06 06:41:04;;;;;;;32.83;12.23;;;;;;;11.74;88.26;102477.84;5032759;28;20031;-86
2022/05/06 06:43:29;;;;;;;41.70;12.48;;;;;;;11.87;87.98;102461.56;5031021;28;20037;-86
2022/05/06 06:45:56;;;;;;;24.37;12.53;;;;;;;12.13;87.14;102466.88;5031723;28;20036;-86
2022/05/06 06:48:25;;;;;;;35.47;12.82;;;;;;;12.17;86.62;102471.56;5033540;28;20057;-86
2022/05/06 06:50:52;;;;;;;29.27;12.98;;;;;;;12.36;85.40;102463.44;5030536;28;20056;-85
2022/05/06 06:53:18;;;;;;;23.98;12.95;;;;;;;12.61;84.18;102474.00;5029050;28;20038;-87
2022/05/06 06:55:43;;;;;;;27.33;13.45;;;;;;;12.78;84.51;102476.81;5031943;28;20025;-89
2022/05/06 06:58:09;;;;;;;25.87;14.07;;;;;;;12.93;83.83;102479.06;5034497;28;20025;-90
2022/05/06 07:00:34;;;;;;;27.23;14.80;;;;;;;13.05;83.50;102480.97;5028719;28;20021;-90
2022/05/06 07:02:59;;;;;;;30.13;13.93;;;;;;;13.06;82.54;102480.72;5054626;22;20502;-90
2022/05/06 07:05:25;;;;;;;33.83;14.50;;;;;;;13.16;82.30;102490.91;5037485;28;20113;-90
2022/05/06 07:13:00;;;;;;;25.88;15.57;;;;;;;13.42;81.67;102494.19;5113521;22;20054;-88
2022/05/06 07:15:29;;;;;;;58.20;18.20;;;;;;;13.47;81.74;102508.59;5012654;28;20531;-88
2022/05/06 07:17:56;;;;;;;41.28;18.08;;;;;;;13.45;82.10;102504.47;5012864;28;20033;-85
2022/05/06 07:22:57;;;;;;;41.70;19.58;;;;;;;13.31;82.27;102490.44;5100066;22;20060;-88
2022/05/06 07:25:22;;;;;;;36.63;20.33;;;;;;;13.56;82.07;102502.81;5032964;28;20374;-89
2022/05/06 07:28:07;;;;;;;37.53;20.10;;;;;;;13.64;81.84;102494.38;5033228;28;20021;-88
2022/05/06 07:30:33;;;;;;;39.75;19.65;;;;;;;13.80;80.19;102513.56;5035942;28;20033;-89
2022/05/06 07:32:58;;;;;;;41.13;20.10;;;;;;;13.80;79.96;102527.81;5057039;28;20027;-95
2022/05/06 07:35:24;;;;;;;38.90;19.48;;;;;;;13.82;80.00;102522.22;5118220;22;20049;-93
2022/05/06 07:38:20;;;;;;;37.27;20.23;;;;;;;13.67;80.05;102512.78;5188433;22;20028;-96
2022/05/06 07:41:17;;;;;;;37.95;19.90;;;;;;;13.60;80.34;102523.66;5069543;28;20024;-93
2022/05/06 07:43:42;;;;;;;38.58;19.38;;;;;;;13.61;80.98;102538.75;5050050;28;20022;-94
2022/05/06 07:46:58;;;;;;;37.60;19.77;;;;;;;13.72;81.15;102537.09;5058359;28;20065;-95
2022/05/06 07:49:24;;;;;;;38.78;19.63;;;;;;;13.73;80.00;102527.97;5038125;28;20022;-95
2022/05/06 07:51:50;;;;;;;38.72;20.63;;;;;;;13.58;80.85;102539.25;5107986;22;20033;-96
2022/05/06 07:54:16;;;;;;;42.72;21.40;;;;;;;13.37;81.44;102537.13;5076919;28;20054;-94
2022/05/06 08:12:15;;;;;;;45.10;23.83;;;;;;;13.67;81.01;102537.00;5688747;22;20057;-96
2022/05/06 08:14:42;;;;;;;46.07;22.90;;;;;;;13.93;80.77;102551.84;5075966;28;20263;-94
2022/05/06 08:17:08;;;;;;;42.40;22.35;;;;;;;13.93;79.31;102534.81;5070010;28;20023;-96
2022/05/06 08:22:20;;;;;;;42.42;23.10;;;;;;;14.30;79.24;102558.72;5292549;22;20597;-96
2022/05/06 08:25:11;;;;;;;42.65;22.10;;;;;;;14.45;78.26;102557.38;5069805;28;20031;-96
2022/05/06 08:27:42;;;;;;;44.13;21.83;;;;;;;14.31;77.53;102546.88;5173828;22;20000;-96
2022/05/06 08:37:54;;;;;;;44.55;22.45;;;;;;;15.44;74.91;102545.22;5044033;28;20045;-96
2022/05/06 08:40:26;;;;;;;41.47;22.92;;;;;;;15.80;73.03;102547.59;5033559;28;20083;-96
2022/05/06 08:42:52;;;;;;;42.17;22.90;;;;;;;16.25;70.45;102543.00;5039566;28;20068;-90
2022/05/06 08:58:38;;;;;;;37.85;22.65;;;;;;;17.21;66.36;102526.22;5341457;22;20049;-95
2022/05/06 09:03:51;;;;;;;37.35;22.08;;;;;;;17.04;66.52;102508.25;5022423;28;20052;-96
2022/05/06 09:06:43;;;;;;;37.67;21.25;;;;;;;16.64;68.17;102533.91;5210709;22;20052;-96
2022/05/06 09:09:35;;;;;;;35.45;20.08;;;;;;;16.37;69.38;102510.41;5058305;28;20029;-91
2022/05/06 09:18:00;;;;;;;39.53;21.02;;;;;;;16.21;69.88;102517.53;5027711;28;20124;-88
2022/05/06 09:20:41;;;;;;;40.00;22.23;;;;;;;15.90;70.98;102506.41;5026706;28;20108;-93
2022/05/06 09:23:33;;;;;;;40.20;21.42;;;;;;;15.87;71.87;102517.72;5028698;28;20065;-87
2022/05/06 09:25:59;;;;;;;34.63;20.35;;;;;;;16.05;71.71;102516.56;5022853;28;20033;-92
2022/05/06 09:28:35;;;;;;;39.20;21.87;;;;;;;16.02;71.68;102526.00;5028978;28;20136;-89
2022/05/06 09:31:02;;;;;;;37.28;21.05;;;;;;;16.05;72.58;102521.97;5029089;28;20083;-94
2022/05/06 09:33:33;;;;;;;37.25;20.52;;;;;;;16.27;72.17;102527.34;5029983;28;20043;-94
2022/05/06 09:35:58;;;;;;;35.42;20.08;;;;;;;16.50;70.04;102512.69;5029641;28;20056;-91
2022/05/06 09:38:29;;;;;;;31.00;17.50;;;;;;;16.64;68.21;102510.38;5033185;28;20704;-92
2022/05/06 09:40:55;;;;;;;33.13;18.23;;;;;;;16.73;68.59;102512.59;5038529;28;20376;-92
2022/05/06 09:43:20;;;;;;;32.72;18.25;;;;;;;16.85;69.23;102498.88;5048275;28;20638;-92
2022/05/06 09:45:46;;;;;;;33.93;18.53;;;;;;;16.93;67.89;102504.63;5029374;28;20071;-94
2022/05/06 09:48:13;;;;;;;31.95;17.77;;;;;;;16.81;66.99;102509.41;5031859;28;20607;-95
2022/05/06 09:50:42;;;;;;;26.17;16.20;;;;;;;16.80;67.47;102508.59;5016519;28;20084;-94
2022/05/06 09:53:09;;;;;;;29.42;16.77;;;;;;;16.94;67.92;102500.84;5026925;28;20037;-95
2022/05/06 09:55:37;;;;;;;29.95;18.48;;;;;;;17.19;67.90;102499.41;5039825;28;20106;-91
2022/05/06 09:58:04;;;;;;;29.92;16.98;;;;;;;17.43;67.16;102504.41;5030961;28;20037;-93
2022/05/06 10:00:29;;;;;;;23.87;14.53;;;;;;;17.58;66.45;102500.16;5086485;22;20049;-93
2022/05/06 10:02:56;;;;;;;19.30;12.20;;;;;;;17.66;62.96;102505.88;5024202;28;20369;-92
2022/05/06 10:05:29;;;;;;;27.80;15.95;;;;;;;17.65;63.58;102509.66;5031372;28;20025;-92
2022/05/06 10:07:58;;;;;;;27.58;15.88;;;;;;;17.93;65.59;102502.16;5031841;28;20038;-94
2022/05/06 10:10:28;;;;;;;19.60;11.45;;;;;;;18.21;60.99;102510.94;5029816;28;20021;-93
2022/05/06 10:13:06;;;;;;;24.10;15.07;;;;;;;18.21;62.65;102502.81;5026633;28;20109;-94
2022/05/06 10:15:32;;;;;;;30.13;15.45;;;;;;;18.17;62.28;102497.06;5148454;22;20041;-93
2022/05/06 10:18:07;;;;;;;31.42;17.20;;;;;;;18.53;63.41;102501.72;5046287;28;20060;-92
2022/05/06 10:20:35;;;;;;;22.00;12.80;;;;;;;18.45;60.46;102499.53;5057762;22;20099;-95
2022/05/06 10:23:07;;;;;;;17.37;11.37;;;;;;;18.69;61.04;102501.72;5095696;22;20386;-96
2022/05/06 10:25:42;;;;;;;19.50;12.10;;;;;;;18.76;59.55;102503.06;5038684;28;20056;-96
2022/05/06 10:34:12;;;;;;;19.10;13.02;;;;;;;18.89;58.13;102490.84;5042416;28;20068;-89
2022/05/06 10:36:41;;;;;;;12.65;8.10;;;;;;;18.92;56.81;102490.31;5160118;22;20043;-95
2022/05/06 10:42:03;;;;;;;26.92;13.88;;;;;;;19.12;57.46;102491.38;5079543;22;20499;-93
2022/05/06 10:44:36;;;;;;;27.88;14.27;;;;;;;19.13;57.90;102478.59;5065972;28;20131;-93
2022/05/06 10:47:03;;;;;;;19.43;12.83;;;;;;;19.14;57.71;102483.78;5073143;28;20035;-93
2022/05/06 10:49:35;;;;;;;13.23;9.00;;;;;;;19.31;56.49;102486.16;5057037;28;20327;-94
2022/05/06 10:52:15;;;;;;;17.55;9.95;;;;;;;19.59;57.17;102473.00;5056605;28;20044;-93
2022/05/06 10:54:48;;;;;;;11.55;7.47;;;;;;;19.86;52.62;102469.03;5070308;28;20021;-95
2022/05/06 10:57:20;;;;;;;11.88;8.25;;;;;;;20.05;52.67;102471.97;5066097;28;20047;-92
2022/05/06 11:00:03;;;;;;;11.32;7.82;;;;;;;20.15;53.67;102470.25;5061768;28;20049;-96
2022/05/06 11:02:44;;;;;;;11.48;7.57;;;;;;;20.20;52.82;102472.94;5063820;28;20664;-96
2022/05/06 11:05:15;;;;;;;9.32;6.53;;;;;;;20.24;49.85;102468.56;5054748;28;20036;-95
2022/05/06 11:07:43;;;;;;;8.90;5.95;;;;;;;20.27;47.87;102470.69;5054416;28;20025;-93
2022/05/06 11:10:11;;;;;;;9.80;6.38;;;;;;;20.59;49.21;102458.47;5050900;28;20432;-92
2022/05/06 11:13:08;;;;;;;7.73;5.37;;;;;;;20.82;48.29;102458.81;5053220;28;20059;-93
2022/05/06 11:15:35;;;;;;;12.83;6.53;;;;;;;20.86;46.57;102457.13;5039498;28;20345;-92
2022/05/06 11:18:06;;;;;;;9.13;6.20;;;;;;;20.80;46.76;102453.66;5050072;28;20017;-91
2022/05/06 11:20:38;;;;;;;11.27;6.63;;;;;;;20.86;48.80;102457.13;5052622;28;20104;-92
2022/05/06 11:23:09;;;;;;;10.50;6.80;;;;;;;20.75;48.01;102448.22;5053612;28;20033;-92
2022/05/06 11:25:48;;;;;;;12.75;7.20;;;;;;;20.82;49.26;102445.19;5054348;28;20032;-94
2022/05/06 11:28:58;;;;;;;7.10;5.80;;;;;;;21.05;47.87;102442.75;5051553;28;20025;-94
2022/05/06 11:31:33;;;;;;;6.60;5.80;;;;;;;21.32;46.20;102445.72;5049015;28;20035;-94
2022/05/06 11:34:07;;;;;;;9.05;5.20;;;;;;;21.43;45.61;102443.66;5050883;28;20314;-95
2022/05/06 11:36:47;;;;;;;7.18;5.22;;;;;;;21.62;45.25;102435.53;5052084;28;20056;-93
2022/05/06 11:39:13;;;;;;;7.03;4.67;;;;;;;21.70;45.16;102428.59;5054434;28;20566;-91
2022/05/06 11:41:38;;;;;;;8.47;5.40;;;;;;;21.86;44.11;102434.66;5049649;28;20295;-92
2022/05/06 11:44:05;;;;;;;6.38;4.30;;;;;;;21.98;44.75;102426.00;5053579;28;20033;-95
2022/05/06 11:49:29;;;;;;;6.70;5.47;;;;;;;21.96;43.69;102435.56;5052486;28;20083;-92
2022/05/06 11:51:56;;;;;;;8.13;4.75;;;;;;;21.90;43.17;102430.22;5052962;28;20025;-93
2022/05/06 11:54:22;;;;;;;5.97;4.18;;;;;;;21.79;41.39;102423.28;5055663;28;20126;-94
2022/05/06 11:56:48;;;;;;;8.85;4.68;;;;;;;21.48;43.34;102413.59;5055933;28;20052;-94
2022/05/06 11:59:13;;;;;;;6.43;5.00;;;;;;;21.77;43.81;102420.84;5055811;28;20048;-96
2022/05/06 12:01:40;;;;;;;7.30;4.82;;;;;;;21.88;42.49;102398.88;5052564;28;20543;-95
2022/05/06 12:04:07;;;;;;;5.73;5.00;;;;;;;22.17;43.33;102409.59;5055492;28;20499;-96
2022/05/06 12:06:37;;;;;;;6.57;5.00;;;;;;;22.38;43.12;102411.97;5053595;28;20025;-96
2022/05/06 12:09:12;;;;;;;6.57;5.25;;;;;;;22.13;43.12;102400.38;5052830;28;20030;-94
2022/05/06 12:11:39;;;;;;;6.05;5.10;;;;;;;21.98;42.56;102398.72;5052367;28;20480;-95
2022/05/06 12:14:08;;;;;;;6.50;4.68;;;;;;;22.08;43.26;102395.81;5054205;28;20079;-94
2022/05/06 12:16:54;;;;;;;8.55;4.60;;;;;;;22.22;42.25;102395.03;5053919;28;20444;-94
2022/05/06 12:19:19;;;;;;;6.90;5.70;;;;;;;22.32;41.85;102396.78;5041447;28;20079;-92
2022/05/06 12:21:47;;;;;;;6.07;5.47;;;;;;;22.57;41.57;102395.53;5052255;28;20029;-94
2022/05/06 12:24:12;;;;;;;7.38;5.60;;;;;;;22.51;41.55;102394.81;5055032;28;20063;-95
2022/05/06 12:26:38;;;;;;;7.33;5.30;;;;;;;22.91;41.61;102390.78;5054621;28;20035;-93
2022/05/06 12:29:24;;;;;;;7.28;5.10;;;;;;;22.97;40.52;102392.31;5054608;28;20064;-96
2022/05/06 12:32:29;;;;;;;7.32;5.00;;;;;;;22.96;41.22;102387.94;5052090;28;20033;-95
2022/05/06 12:35:08;;;;;;;7.05;5.30;;;;;;;23.26;40.52;102385.69;5038331;28;20037;-96
2022/05/06 12:37:35;;;;;;;8.10;5.37;;;;;;;23.60;38.45;102381.66;5063824;28;20036;-96
2022/05/06 12:40:01;;;;;;;9.13;5.20;;;;;;;23.79;38.88;102380.66;5070453;28;20280;-96
2022/05/06 12:42:26;;;;;;;7.07;5.60;;;;;;;23.78;39.15;102390.00;5075123;28;20039;-96
2022/05/06 12:44:51;;;;;;;8.02;5.75;;;;;;;23.74;39.99;102385.13;5074703;28;20016;-94